Dahlonega, GA (30533)

8:03 AM EST on February 08, 2016 (GMT -0500)
Nimblewell | | Change Station
CLOSE
Current Station
Personal Weather Station
Location: Dahlonega, GA
Elevation: 1706 ft
Nearby Weather Stations
Active Advisory: Winter Weather Advisory

Elev 1706 ft 34.54 °N, 84.17 °W | Updated 17 seconds ago

Mostly Cloudy
Mostly Cloudy
40.2 °F
Feels Like 40 °F
N
0.0
Wind Variable Wind from WSW
Gusts 0.0 mph

Today
High -- | Low -- °F
--% Chance of Precip.
Yesterday
High -- | Low -- °F
Precip. -- in
Pressure 29.83 in
Visibility 10.0 miles
Clouds Few 6000 ft
Windchill 40 °F
Dew Point 29 °F
Humidity 65%
Rainfall 0.00 in
Snow Depth Not available.
7:28 AM 6:12 PM
Waning Crescent, 0% visible
METAR KGVL 081253Z AUTO 23004KT 10SM FEW060 03/M04 A2982 RMK AO2 SLP099 T00281039
Pressure 29.83 in
Visibility 10.0 miles
Clouds Few 6000 ft
Windchill 40 °F
Dew Point 29 °F
Humidity 65%
Rainfall 0.00 in
Snow Depth Not available.
7:28 AM 6:12 PM
Waning Crescent, 0% visible
METAR KGVL 081253Z AUTO 23004KT 10SM FEW060 03/M04 A2982 RMK AO2 SLP099 T00281039

10-Day Weather Forecast

Almanac

Astronomy

Feb. 08, 2016 Rise Set
Actual Time
Civil Twilight
Nautical Twilight
Astronomical Twilight
Moon
Length of Visible Light
Length of Day
Tomorrow will be .
, % of the Moon is Illuminated

Today's Extremes

State Highs State Lows

Community

WunderPhotos

Upload Photos

1,891,434 photos uploaded!

WunderBlog® & News

Nearby

Air Quality

  Air Quality AQ Index Pollutant
Not available.

Snow Depth

Station Depth Elevation

Earthquake Activity

City Distance Mag. Time & Date
Minimum magnitude displayed is 2.5.

Coastal Water Temperatures

Place Temperature

Stations

Nearby Weather Stations

Station Location Temp. Windchill Dew Point Humidity Wind Precip. Elev Updated Type
                   

Watches & Warnings

Winter Weather Advisory
Issued: 3:32 AM EST Feb. 8, 2016 – National Weather Service

... Winter Weather Advisory remains in effect from 7 am this
morning to 7 PM EST Tuesday...

* locations... for portions of north Georgia... mainly east and
north of a line from Ringgold to Dawsonville to Cleveland.

* Hazard types... accumulating snow and areas of black ice.

* Accumulations... 1 to 2 inches of snow with isolated higher
amounts possible at elevations above 2500 feet.

* Timing... 7 am Monday through 7 PM Tuesday for snow. Best chance
of any black ice would be Monday night and Tuesday night.

* Impacts... snow/ice on roads will create hazardous driving
conditions. Even the lower elevations of north Georgia will see
the potential for slick spots on roadways due to black ice
Monday night and Tuesday night as any lingering moisture on the
roads will re-freeze.

Precautionary/preparedness actions...

A Winter Weather Advisory for snow means that periods of snow
will cause primarily travel difficulties. Be prepared for snow
covered roads and limited visibilities... and use caution while
driving.